^^
Station Historical Data
Daily Summary for May 31, 2017 Units:  Both    English   Metric
« Previous Day
Next Day »
Daily Weekly Monthly Yearly Custom
  High: Low: Average:
Temperature: 73.8 °F /  23.2 °C 44.2 °F /  6.8 °C 57.2 °F /  14 °C
Dew Point: 40.8 °F /  4.9 °C 31.3 °F /  -0.4 °C 35.5 °F /  1.9 °C
Humidity: 72% 21% 47%
Wind Speed: 6.0mph /  9.7km/h - 0.4mph /  0.6km/h
Wind Gust: 8.0mph /  12.9km/h - -
Wind- - South
Pressure: 30.44 in /  1030.7 hPa 30.34 in /  1027.3 hPa -
Precipitation: 0.00 in /  0 mm    
Historical Graphs
 
 
Tabular Data for May 31, 2017
Time Temperature Dew Point Pressure Wind Wind Speed Wind Gust Humidity Rainfall Rate (Hourly) solar Conditions
00:01 50.4 °F /  10.2 °C 33.4 °F /  0.8 °C 30.38in /  1028.7hPa Calm     52% 0.00in /  0mm 0.0 W/m2
00:07 50.2 °F /  10.1 °C 33.3 °F /  0.7 °C 30.39in /  1029hPa Calm     52% 0.00in /  0mm 0.0 W/m2
00:13 49.8 °F /  9.9 °C 33.4 °F /  0.8 °C 30.38in /  1028.7hPa Calm     53% 0.00in /  0mm 0.0 W/m2
00:19 49.6 °F /  9.8 °C 33.3 °F /  0.7 °C 30.38in /  1028.7hPa Calm     53% 0.00in /  0mm 0.0 W/m2
00:25 49.6 °F /  9.8 °C 33.3 °F /  0.7 °C 30.38in /  1028.7hPa Calm     53% 0.00in /  0mm 0.0 W/m2
00:31 49.5 °F /  9.7 °C 33.4 °F /  0.8 °C 30.38in /  1028.7hPa Calm     54% 0.00in /  0mm 0.0 W/m2
00:37 49.3 °F /  9.6 °C 33.8 °F /  1 °C 30.38in /  1028.7hPa Calm     55% 0.00in /  0mm 0.0 W/m2
00:43 49.1 °F /  9.5 °C 33.6 °F /  0.9 °C 30.38in /  1028.7hPa Calm     55% 0.00in /  0mm 0.0 W/m2
00:49 48.9 °F /  9.4 °C 34.0 °F /  1.1 °C 30.38in /  1028.7hPa Calm     56% 0.00in /  0mm 0.0 W/m2
00:55 48.9 °F /  9.4 °C 34.3 °F /  1.3 °C 30.38in /  1028.7hPa Calm     57% 0.00in /  0mm 0.0 W/m2
01:01 48.9 °F /  9.4 °C 34.3 °F /  1.3 °C 30.38in /  1028.7hPa Calm     57% 0.00in /  0mm 0.0 W/m2
01:07 48.7 °F /  9.3 °C 34.7 °F /  1.5 °C 30.38in /  1028.7hPa Calm     58% 0.00in /  0mm 0.0 W/m2
01:13 48.7 °F /  9.3 °C 34.7 °F /  1.5 °C 30.38in /  1028.7hPa Calm     58% 0.00in /  0mm 0.0 W/m2
01:19 48.6 °F /  9.2 °C 34.9 °F /  1.6 °C 30.38in /  1028.7hPa Calm     59% 0.00in /  0mm 0.0 W/m2
01:25 48.4 °F /  9.1 °C 34.7 °F /  1.5 °C 30.38in /  1028.7hPa Calm     59% 0.00in /  0mm 0.0 W/m2
01:31 48.4 °F /  9.1 °C 35.1 °F /  1.7 °C 30.38in /  1028.7hPa Calm     60% 0.00in /  0mm 0.0 W/m2
01:37 48.2 °F /  9 °C 35.4 °F /  1.9 °C 30.38in /  1028.7hPa Calm     61% 0.00in /  0mm 0.0 W/m2
01:43 48.0 °F /  8.9 °C 35.2 °F /  1.8 °C 30.38in /  1028.7hPa Calm     61% 0.00in /  0mm 0.0 W/m2
01:49 48.0 °F /  8.9 °C 35.6 °F /  2 °C 30.38in /  1028.7hPa Calm     62% 0.00in /  0mm 0.0 W/m2
01:55 48.0 °F /  8.9 °C 35.6 °F /  2 °C 30.38in /  1028.7hPa Calm     62% 0.00in /  0mm 0.0 W/m2
02:01 47.7 °F /  8.7 °C 35.2 °F /  1.8 °C 30.38in /  1028.7hPa Calm     62% 0.00in /  0mm 0.0 W/m2
02:07 47.5 °F /  8.6 °C 35.6 °F /  2 °C 30.38in /  1028.7hPa Calm     63% 0.00in /  0mm 0.0 W/m2
02:13 47.1 °F /  8.4 °C 35.2 °F /  1.8 °C 30.38in /  1028.7hPa Calm     63% 0.00in /  0mm 0.0 W/m2
02:19 46.8 °F /  8.2 °C 35.2 °F /  1.8 °C 30.37in /  1028.3hPa Calm     64% 0.00in /  0mm 0.0 W/m2
02:25 46.6 °F /  8.1 °C 35.4 °F /  1.9 °C 30.37in /  1028.3hPa Calm     65% 0.00in /  0mm 0.0 W/m2
02:31 46.0 °F /  7.8 °C 34.9 °F /  1.6 °C 30.37in /  1028.3hPa Calm     65% 0.00in /  0mm 0.0 W/m2
02:37 45.9 °F /  7.7 °C 35.1 °F /  1.7 °C 30.37in /  1028.3hPa Calm     66% 0.00in /  0mm 0.0 W/m2
02:43 45.7 °F /  7.6 °C 35.1 °F /  1.7 °C 30.37in /  1028.3hPa Calm     66% 0.00in /  0mm 0.0 W/m2
02:49 45.3 °F /  7.4 °C 35.1 °F /  1.7 °C 30.37in /  1028.3hPa Calm     67% 0.00in /  0mm 0.0 W/m2
02:55 45.1 °F /  7.3 °C 34.9 °F /  1.6 °C 30.38in /  1028.7hPa Calm     67% 0.00in /  0mm 0.0 W/m2
03:01 45.0 °F /  7.2 °C 35.1 °F /  1.7 °C 30.39in /  1029hPa Calm     68% 0.00in /  0mm 0.0 W/m2
03:07 44.8 °F /  7.1 °C 34.9 °F /  1.6 °C 30.38in /  1028.7hPa Calm     68% 0.00in /  0mm 0.0 W/m2
03:13 44.4 °F /  6.9 °C 34.9 °F /  1.6 °C 30.38in /  1028.7hPa Calm     69% 0.00in /  0mm 0.0 W/m2
03:19 44.4 °F /  6.9 °C 34.9 °F /  1.6 °C 30.38in /  1028.7hPa Calm     69% 0.00in /  0mm 0.0 W/m2
03:25 44.4 °F /  6.9 °C 34.9 °F /  1.6 °C 30.38in /  1028.7hPa Calm     69% 0.00in /  0mm 0.0 W/m2
03:31 44.4 °F /  6.9 °C 35.2 °F /  1.8 °C 30.38in /  1028.7hPa Calm     70% 0.00in /  0mm 0.0 W/m2
03:37 44.6 °F /  7 °C 35.1 °F /  1.7 °C 30.38in /  1028.7hPa Calm     69% 0.00in /  0mm 0.0 W/m2
03:43 44.8 °F /  7.1 °C 35.6 °F /  2 °C 30.37in /  1028.3hPa Calm     70% 0.00in /  0mm 0.0 W/m2
03:49 44.8 °F /  7.1 °C 35.2 °F /  1.8 °C 30.37in /  1028.3hPa Calm     69% 0.00in /  0mm 0.0 W/m2
03:55 45.0 °F /  7.2 °C 35.4 °F /  1.9 °C 30.37in /  1028.3hPa Calm     69% 0.00in /  0mm 0.0 W/m2
04:01 45.1 °F /  7.3 °C 35.6 °F /  2 °C 30.38in /  1028.7hPa Calm     69% 0.00in /  0mm 0.0 W/m2
04:07 45.5 °F /  7.5 °C 35.6 °F /  2 °C 30.38in /  1028.7hPa Calm     68% 0.00in /  0mm 0.0 W/m2
04:13 45.7 °F /  7.6 °C 35.4 °F /  1.9 °C 30.38in /  1028.7hPa Calm     67% 0.00in /  0mm 0.0 W/m2
04:19 45.7 °F /  7.6 °C 35.1 °F /  1.7 °C 30.38in /  1028.7hPa Calm     66% 0.00in /  0mm 0.0 W/m2
04:25 45.7 °F /  7.6 °C 35.1 °F /  1.7 °C 30.38in /  1028.7hPa Calm     66% 0.00in /  0mm 0.0 W/m2
04:31 45.5 °F /  7.5 °C 34.9 °F /  1.6 °C 30.38in /  1028.7hPa Calm     66% 0.00in /  0mm 0.0 W/m2
04:37 45.3 °F /  7.4 °C 35.1 °F /  1.7 °C 30.38in /  1028.7hPa Calm     67% 0.00in /  0mm 0.0 W/m2
04:43 45.1 °F /  7.3 °C 34.9 °F /  1.6 °C 30.38in /  1028.7hPa Calm     67% 0.00in /  0mm 0.0 W/m2
04:49 45.1 °F /  7.3 °C 34.9 °F /  1.6 °C 30.38in /  1028.7hPa Calm     67% 0.00in /  0mm 0.0 W/m2
04:55 45.1 °F /  7.3 °C 34.9 °F /  1.6 °C 30.39in /  1029hPa Calm     67% 0.00in /  0mm 0.0 W/m2
05:01 45.3 °F /  7.4 °C 34.7 °F /  1.5 °C 30.38in /  1028.7hPa Calm   1.0mph /  1.6km/h 66% 0.00in /  0mm 0.0 W/m2
05:07 45.3 °F /  7.4 °C 34.7 °F /  1.5 °C 30.39in /  1029hPa Calm     66% 0.00in /  0mm 0.0 W/m2
05:13 45.3 °F /  7.4 °C 34.7 °F /  1.5 °C 30.38in /  1028.7hPa Calm     66% 0.00in /  0mm 0.0 W/m2
05:19 45.1 °F /  7.3 °C 34.5 °F /  1.4 °C 30.39in /  1029hPa Calm     66% 0.00in /  0mm 0.0 W/m2
05:25 45.0 °F /  7.2 °C 34.7 °F /  1.5 °C 30.39in /  1029hPa Calm     67% 0.00in /  0mm 0.0 W/m2
05:31 44.8 °F /  7.1 °C 34.5 °F /  1.4 °C 30.39in /  1029hPa Calm     67% 0.00in /  0mm 0.0 W/m2
05:37 44.4 °F /  6.9 °C 34.5 °F /  1.4 °C 30.39in /  1029hPa Calm     68% 0.00in /  0mm 0.0 W/m2
05:43 44.4 °F /  6.9 °C 34.5 °F /  1.4 °C 30.39in /  1029hPa Calm     68% 0.00in /  0mm 0.0 W/m2
05:49 44.2 °F /  6.8 °C 34.3 °F /  1.3 °C 30.39in /  1029hPa Calm     68% 0.00in /  0mm 0.0 W/m2
05:55 44.2 °F /  6.8 °C 34.7 °F /  1.5 °C 30.40in /  1029.3hPa Calm     69% 0.00in /  0mm 0.0 W/m2
06:01 44.2 °F /  6.8 °C 34.7 °F /  1.5 °C 30.40in /  1029.3hPa ESE 2.0mph /  3.2km/h 2.0mph /  3.2km/h 69% 0.00in /  0mm 0.0 W/m2
06:07 44.2 °F /  6.8 °C 34.7 °F /  1.5 °C 30.40in /  1029.3hPa Calm   1.0mph /  1.6km/h 69% 0.00in /  0mm 0.0 W/m2
06:14 44.2 °F /  6.8 °C 35.1 °F /  1.7 °C 30.40in /  1029.3hPa Calm   1.0mph /  1.6km/h 70% 0.00in /  0mm 0.0 W/m2
06:20 44.4 °F /  6.9 °C 34.9 °F /  1.6 °C 30.41in /  1029.7hPa Calm     69% 0.00in /  0mm 0.0 W/m2
06:26 44.4 °F /  6.9 °C 35.2 °F /  1.8 °C 30.41in /  1029.7hPa Calm   4.0mph /  6.4km/h 70% 0.00in /  0mm 5.0 W/m2
06:32 44.4 °F /  6.9 °C 35.2 °F /  1.8 °C 30.41in /  1029.7hPa Calm     70% 0.00in /  0mm 7.0 W/m2
06:38 44.4 °F /  6.9 °C 35.2 °F /  1.8 °C 30.42in /  1030hPa Calm     70% 0.00in /  0mm 9.0 W/m2
06:44 44.4 °F /  6.9 °C 35.2 °F /  1.8 °C 30.42in /  1030hPa Calm     70% 0.00in /  0mm 11.0 W/m2
06:50 44.6 °F /  7 °C 35.4 °F /  1.9 °C 30.42in /  1030hPa Calm     70% 0.00in /  0mm 12.0 W/m2
06:56 44.8 °F /  7.1 °C 35.6 °F /  2 °C 30.42in /  1030hPa Calm   1.0mph /  1.6km/h 70% 0.00in /  0mm 14.0 W/m2
07:02 44.8 °F /  7.1 °C 36.0 °F /  2.2 °C 30.43in /  1030.4hPa Calm     71% 0.00in /  0mm 16.0 W/m2
07:09 45.0 °F /  7.2 °C 36.1 °F /  2.3 °C 30.43in /  1030.4hPa Calm     71% 0.00in /  0mm 18.0 W/m2
07:15 45.1 °F /  7.3 °C 36.3 °F /  2.4 °C 30.43in /  1030.4hPa Calm     71% 0.00in /  0mm 19.0 W/m2
07:21 45.1 °F /  7.3 °C 36.3 °F /  2.4 °C 30.43in /  1030.4hPa Calm     71% 0.00in /  0mm 21.0 W/m2
07:27 45.3 °F /  7.4 °C 36.9 °F /  2.7 °C 30.43in /  1030.4hPa Calm     72% 0.00in /  0mm 23.0 W/m2
07:33 46.0 °F /  7.8 °C 37.2 °F /  2.9 °C 30.43in /  1030.4hPa Calm     71% 0.00in /  0mm 25.0 W/m2
07:39 46.4 °F /  8 °C 37.9 °F /  3.3 °C 30.44in /  1030.7hPa Calm     72% 0.00in /  0mm 26.0 W/m2
07:45 46.9 °F /  8.3 °C 38.3 °F /  3.5 °C 30.44in /  1030.7hPa Calm     72% 0.00in /  0mm 26.0 W/m2
07:51 47.7 °F /  8.7 °C 38.7 °F /  3.7 °C 30.43in /  1030.4hPa Calm     71% 0.00in /  0mm 28.0 W/m2
07:58 49.3 °F /  9.6 °C 39.2 °F /  4 °C 30.44in /  1030.7hPa Calm   2.0mph /  3.2km/h 68% 0.00in /  0mm 35.0 W/m2
08:04 51.8 °F /  11 °C 39.6 °F /  4.2 °C 30.44in /  1030.7hPa Calm   2.0mph /  3.2km/h 63% 0.00in /  0mm 306.0 W/m2
08:10 54.1 °F /  12.3 °C 40.1 °F /  4.5 °C 30.44in /  1030.7hPa Calm   2.0mph /  3.2km/h 59% 0.00in /  0mm 329.0 W/m2
08:16 56.5 °F /  13.6 °C 40.5 °F /  4.7 °C 30.44in /  1030.7hPa Calm   2.0mph /  3.2km/h 55% 0.00in /  0mm 348.0 W/m2
08:22 58.5 °F /  14.7 °C 40.5 °F /  4.7 °C 30.44in /  1030.7hPa Calm   3.0mph /  4.8km/h 51% 0.00in /  0mm 371.0 W/m2
08:28 59.9 °F /  15.5 °C 40.6 °F /  4.8 °C 30.44in /  1030.7hPa Calm   5.0mph /  8km/h 49% 0.00in /  0mm 390.0 W/m2
08:34 60.6 °F /  15.9 °C 40.3 °F /  4.6 °C 30.44in /  1030.7hPa Calm   4.0mph /  6.4km/h 47% 0.00in /  0mm 410.0 W/m2
08:40 61.5 °F /  16.4 °C 39.9 °F /  4.4 °C 30.44in /  1030.7hPa NNW 0.9mph /  1.4km/h 1.0mph /  1.6km/h 45% 0.00in /  0mm 427.0 W/m2
08:47 62.6 °F /  17 °C 40.5 °F /  4.7 °C 30.44in /  1030.7hPa Calm   1.0mph /  1.6km/h 44% 0.00in /  0mm 446.0 W/m2
08:53 63.5 °F /  17.5 °C 39.9 °F /  4.4 °C 30.44in /  1030.7hPa NW 2.0mph /  3.2km/h 4.0mph /  6.4km/h 42% 0.00in /  0mm 464.0 W/m2
08:59 63.9 °F /  17.7 °C 40.3 °F /  4.6 °C 30.44in /  1030.7hPa NNW 0.9mph /  1.4km/h 5.0mph /  8km/h 42% 0.00in /  0mm 480.0 W/m2
09:05 64.6 °F /  18.1 °C 40.3 °F /  4.6 °C 30.44in /  1030.7hPa Calm   4.0mph /  6.4km/h 41% 0.00in /  0mm 499.0 W/m2
09:11 64.9 °F /  18.3 °C 40.1 °F /  4.5 °C 30.44in /  1030.7hPa Calm   3.0mph /  4.8km/h 40% 0.00in /  0mm 513.0 W/m2
09:17 65.3 °F /  18.5 °C 40.3 °F /  4.6 °C 30.44in /  1030.7hPa NNW 0.9mph /  1.4km/h 3.0mph /  4.8km/h 40% 0.00in /  0mm 529.0 W/m2
09:23 65.7 °F /  18.7 °C 40.6 °F /  4.8 °C 30.44in /  1030.7hPa Calm   7.0mph /  11.3km/h 40% 0.00in /  0mm 538.0 W/m2
09:29 66.0 °F /  18.9 °C 40.3 °F /  4.6 °C 30.44in /  1030.7hPa Calm   6.0mph /  9.7km/h 39% 0.00in /  0mm 554.0 W/m2
09:35 65.8 °F /  18.8 °C 40.8 °F /  4.9 °C 30.44in /  1030.7hPa Calm   2.0mph /  3.2km/h 40% 0.00in /  0mm 566.0 W/m2
09:41 65.8 °F /  18.8 °C 40.1 °F /  4.5 °C 30.44in /  1030.7hPa WSW 0.9mph /  1.4km/h 3.0mph /  4.8km/h 39% 0.00in /  0mm 578.0 W/m2
09:47 65.5 °F /  18.6 °C 40.5 °F /  4.7 °C 30.44in /  1030.7hPa West 0.9mph /  1.4km/h 2.0mph /  3.2km/h 40% 0.00in /  0mm 594.0 W/m2
09:53 65.1 °F /  18.4 °C 39.6 °F /  4.2 °C 30.44in /  1030.7hPa Calm   2.0mph /  3.2km/h 39% 0.00in /  0mm 603.0 W/m2
10:01 66.0 °F /  18.9 °C 40.3 °F /  4.6 °C 30.43in /  1030.4hPa Calm   3.0mph /  4.8km/h 39% 0.00in /  0mm 622.0 W/m2
10:08 66.6 °F /  19.2 °C 40.1 °F /  4.5 °C 30.43in /  1030.4hPa Calm   2.0mph /  3.2km/h 38% 0.00in /  0mm 631.0 W/m2
10:14 67.3 °F /  19.6 °C 40.1 °F /  4.5 °C 30.43in /  1030.4hPa Calm   3.0mph /  4.8km/h 37% 0.00in /  0mm 643.0 W/m2
10:20 67.8 °F /  19.9 °C 39.9 °F /  4.4 °C 30.43in /  1030.4hPa NNW 2.0mph /  3.2km/h 4.0mph /  6.4km/h 36% 0.00in /  0mm 645.0 W/m2
10:26 68.4 °F /  20.2 °C 40.3 °F /  4.6 °C 30.43in /  1030.4hPa North 2.9mph /  4.7km/h 5.0mph /  8km/h 36% 0.00in /  0mm 657.0 W/m2
10:32 68.7 °F /  20.4 °C 39.2 °F /  4 °C 30.43in /  1030.4hPa Calm   1.0mph /  1.6km/h 34% 0.00in /  0mm 668.0 W/m2
10:38 68.5 °F /  20.3 °C 39.7 °F /  4.3 °C 30.43in /  1030.4hPa Calm   1.0mph /  1.6km/h 35% 0.00in /  0mm 675.0 W/m2
10:44 68.7 °F /  20.4 °C 39.2 °F /  4 °C 30.42in /  1030hPa NNW 2.9mph /  4.7km/h 5.0mph /  8km/h 34% 0.00in /  0mm 680.0 W/m2
10:50 68.9 °F /  20.5 °C 40.1 °F /  4.5 °C 30.42in /  1030hPa NNW 0.9mph /  1.4km/h 2.0mph /  3.2km/h 35% 0.00in /  0mm 687.0 W/m2
10:56 69.3 °F /  20.7 °C 39.7 °F /  4.3 °C 30.42in /  1030hPa NE 0.9mph /  1.4km/h 6.0mph /  9.7km/h 34% 0.00in /  0mm 694.0 W/m2
11:02 69.8 °F /  21 °C 39.4 °F /  4.1 °C 30.42in /  1030hPa NNW 0.9mph /  1.4km/h 5.0mph /  8km/h 33% 0.00in /  0mm 700.0 W/m2
11:08 70.3 °F /  21.3 °C 39.0 °F /  3.9 °C 30.42in /  1030hPa NNW 2.9mph /  4.7km/h 6.0mph /  9.7km/h 32% 0.00in /  0mm 701.0 W/m2
11:14 70.3 °F /  21.3 °C 40.6 °F /  4.8 °C 30.41in /  1029.7hPa Calm   1.0mph /  1.6km/h 34% 0.00in /  0mm 700.0 W/m2
11:21 70.5 °F /  21.4 °C 39.2 °F /  4 °C 30.41in /  1029.7hPa Calm   4.0mph /  6.4km/h 32% 0.00in /  0mm 698.0 W/m2
11:27 70.5 °F /  21.4 °C 40.1 °F /  4.5 °C 30.41in /  1029.7hPa Calm   2.0mph /  3.2km/h 33% 0.00in /  0mm 700.0 W/m2
11:33 70.9 °F /  21.6 °C 40.3 °F /  4.6 °C 30.41in /  1029.7hPa Calm   4.0mph /  6.4km/h 33% 0.00in /  0mm 703.0 W/m2
11:39 70.5 °F /  21.4 °C 39.2 °F /  4 °C 30.41in /  1029.7hPa Calm   2.0mph /  3.2km/h 32% 0.00in /  0mm 703.0 W/m2
11:45 70.3 °F /  21.3 °C 39.9 °F /  4.4 °C 30.41in /  1029.7hPa Calm   2.0mph /  3.2km/h 33% 0.00in /  0mm 710.0 W/m2
11:51 70.3 °F /  21.3 °C 39.9 °F /  4.4 °C 30.40in /  1029.3hPa Calm   3.0mph /  4.8km/h 33% 0.00in /  0mm 717.0 W/m2
11:57 70.9 °F /  21.6 °C 39.6 °F /  4.2 °C 30.40in /  1029.3hPa South 0.9mph /  1.4km/h 4.0mph /  6.4km/h 32% 0.00in /  0mm 715.0 W/m2
12:03 71.2 °F /  21.8 °C 35.6 °F /  2 °C 30.40in /  1029.3hPa Calm   4.0mph /  6.4km/h 27% 0.00in /  0mm 712.0 W/m2
12:09 71.4 °F /  21.9 °C 39.2 °F /  4 °C 30.39in /  1029hPa NW 0.9mph /  1.4km/h 4.0mph /  6.4km/h 31% 0.00in /  0mm 710.0 W/m2
12:16 71.8 °F /  22.1 °C 37.8 °F /  3.2 °C 30.39in /  1029hPa East 4.0mph /  6.4km/h 4.0mph /  6.4km/h 29% 0.00in /  0mm 708.0 W/m2
12:22 72.0 °F /  22.2 °C 37.9 °F /  3.3 °C 30.39in /  1029hPa Calm   3.0mph /  4.8km/h 29% 0.00in /  0mm 701.0 W/m2
12:28 71.8 °F /  22.1 °C 36.9 °F /  2.7 °C 30.39in /  1029hPa Calm   2.0mph /  3.2km/h 28% 0.00in /  0mm 693.0 W/m2
12:34 72.0 °F /  22.2 °C 37.0 °F /  2.8 °C 30.38in /  1028.7hPa West 0.9mph /  1.4km/h 2.0mph /  3.2km/h 28% 0.00in /  0mm 680.0 W/m2
12:40 72.0 °F /  22.2 °C 38.8 °F /  3.8 °C 30.38in /  1028.7hPa NE 2.9mph /  4.7km/h 3.0mph /  4.8km/h 30% 0.00in /  0mm 680.0 W/m2
12:46 72.3 °F /  22.4 °C 39.2 °F /  4 °C 30.38in /  1028.7hPa Calm   1.0mph /  1.6km/h 30% 0.00in /  0mm 673.0 W/m2
12:52 72.1 °F /  22.3 °C 38.1 °F /  3.4 °C 30.38in /  1028.7hPa Calm   6.0mph /  9.7km/h 29% 0.00in /  0mm 666.0 W/m2
12:58 71.6 °F /  22 °C 37.6 °F /  3.1 °C 30.37in /  1028.3hPa West 2.0mph /  3.2km/h 5.0mph /  8km/h 29% 0.00in /  0mm 659.0 W/m2
13:04 71.2 °F /  21.8 °C 38.3 °F /  3.5 °C 30.37in /  1028.3hPa Calm   1.0mph /  1.6km/h 30% 0.00in /  0mm 652.0 W/m2
13:11 71.4 °F /  21.9 °C 35.8 °F /  2.1 °C 30.36in /  1028hPa Calm   5.0mph /  8km/h 27% 0.00in /  0mm 642.0 W/m2
13:17 72.0 °F /  22.2 °C 34.2 °F /  1.2 °C 30.36in /  1028hPa Calm   1.0mph /  1.6km/h 25% 0.00in /  0mm 635.0 W/m2
13:23 72.3 °F /  22.4 °C 34.5 °F /  1.4 °C 30.36in /  1028hPa NE 0.9mph /  1.4km/h 2.0mph /  3.2km/h 25% 0.00in /  0mm 624.0 W/m2
13:31 72.9 °F /  22.7 °C 35.1 °F /  1.7 °C 30.36in /  1028hPa Calm   2.0mph /  3.2km/h 25% 0.00in /  0mm 610.0 W/m2
13:37 72.7 °F /  22.6 °C 34.9 °F /  1.6 °C 30.36in /  1028hPa ENE 2.0mph /  3.2km/h 4.0mph /  6.4km/h 25% 0.00in /  0mm 591.0 W/m2
13:43 72.7 °F /  22.6 °C 36.9 °F /  2.7 °C 30.35in /  1027.7hPa Calm   5.0mph /  8km/h 27% 0.00in /  0mm 589.0 W/m2
13:49 73.0 °F /  22.8 °C 35.1 °F /  1.7 °C 30.35in /  1027.7hPa North 2.9mph /  4.7km/h 8.0mph /  12.9km/h 25% 0.00in /  0mm 578.0 W/m2
14:00 73.2 °F /  22.9 °C 34.3 °F /  1.3 °C 30.35in /  1027.7hPa NNE 4.0mph /  6.4km/h 4.0mph /  6.4km/h 24% 0.00in /  0mm 552.0 W/m2
14:06 73.2 °F /  22.9 °C 34.3 °F /  1.3 °C 30.35in /  1027.7hPa Calm   5.0mph /  8km/h 24% 0.00in /  0mm 540.0 W/m2
14:12 73.0 °F /  22.8 °C 34.2 °F /  1.2 °C 30.35in /  1027.7hPa WSW 0.9mph /  1.4km/h 2.0mph /  3.2km/h 24% 0.00in /  0mm 520.0 W/m2
14:18 72.9 °F /  22.7 °C 34.0 °F /  1.1 °C 30.35in /  1027.7hPa NNE 2.0mph /  3.2km/h 2.0mph /  3.2km/h 24% 0.00in /  0mm 512.0 W/m2
14:24 72.9 °F /  22.7 °C 34.0 °F /  1.1 °C 30.35in /  1027.7hPa NNW 2.0mph /  3.2km/h 5.0mph /  8km/h 24% 0.00in /  0mm 492.0 W/m2
14:30 72.9 °F /  22.7 °C 32.9 °F /  0.5 °C 30.34in /  1027.3hPa Calm   1.0mph /  1.6km/h 23% 0.00in /  0mm 478.0 W/m2
14:37 73.0 °F /  22.8 °C 34.2 °F /  1.2 °C 30.34in /  1027.3hPa East 0.9mph /  1.4km/h 4.0mph /  6.4km/h 24% 0.00in /  0mm 461.0 W/m2
14:43 73.6 °F /  23.1 °C 32.4 °F /  0.2 °C 30.34in /  1027.3hPa Calm   5.0mph /  8km/h 22% 0.00in /  0mm 445.0 W/m2
14:51 73.8 °F /  23.2 °C 31.5 °F /  -0.3 °C 30.34in /  1027.3hPa Calm   2.0mph /  3.2km/h 21% 0.00in /  0mm 417.0 W/m2
14:57 73.6 °F /  23.1 °C 31.3 °F /  -0.4 °C 30.34in /  1027.3hPa NNE 2.0mph /  3.2km/h 6.0mph /  9.7km/h 21% 0.00in /  0mm 394.0 W/m2
15:03 73.2 °F /  22.9 °C 32.2 °F /  0.1 °C 30.34in /  1027.3hPa NNE 4.0mph /  6.4km/h 5.0mph /  8km/h 22% 0.00in /  0mm 383.0 W/m2
15:09 73.0 °F /  22.8 °C 32.0 °F /  0 °C 30.34in /  1027.3hPa North 2.0mph /  3.2km/h 4.0mph /  6.4km/h 22% 0.00in /  0mm 366.0 W/m2
15:15 72.9 °F /  22.7 °C 32.9 °F /  0.5 °C 30.34in /  1027.3hPa WSW 2.0mph /  3.2km/h 2.0mph /  3.2km/h 23% 0.00in /  0mm 348.0 W/m2
15:21 72.7 °F /  22.6 °C 32.7 °F /  0.4 °C 30.34in /  1027.3hPa Calm   6.0mph /  9.7km/h 23% 0.00in /  0mm 192.0 W/m2
15:27 72.5 °F /  22.5 °C 32.5 °F /  0.3 °C 30.34in /  1027.3hPa NE 0.9mph /  1.4km/h 2.0mph /  3.2km/h 23% 0.00in /  0mm 44.0 W/m2
15:34 72.3 °F /  22.4 °C 32.4 °F /  0.2 °C 30.34in /  1027.3hPa North 0.9mph /  1.4km/h 7.0mph /  11.3km/h 23% 0.00in /  0mm 42.0 W/m2
15:40 72.1 °F /  22.3 °C 32.4 °F /  0.2 °C 30.34in /  1027.3hPa Calm   3.0mph /  4.8km/h 23% 0.00in /  0mm 40.0 W/m2
15:46 72.0 °F /  22.2 °C 32.2 °F /  0.1 °C 30.34in /  1027.3hPa ENE 6.0mph /  9.7km/h 7.0mph /  11.3km/h 23% 0.00in /  0mm 37.0 W/m2
15:52 71.8 °F /  22.1 °C 33.1 °F /  0.6 °C 30.34in /  1027.3hPa NE 2.9mph /  4.7km/h 4.0mph /  6.4km/h 24% 0.00in /  0mm 35.0 W/m2
15:59 71.2 °F /  21.8 °C 32.5 °F /  0.3 °C 30.35in /  1027.7hPa NW 2.9mph /  4.7km/h 3.0mph /  4.8km/h 24% 0.00in /  0mm 32.0 W/m2
16:04 70.9 °F /  21.6 °C 33.3 °F /  0.7 °C 30.34in /  1027.3hPa NNW 4.0mph /  6.4km/h 5.0mph /  8km/h 25% 0.00in /  0mm 26.0 W/m2
16:10 70.5 °F /  21.4 °C 32.0 °F /  0 °C 30.35in /  1027.7hPa NNE 2.9mph /  4.7km/h 5.0mph /  8km/h 24% 0.00in /  0mm 23.0 W/m2
16:17 70.3 °F /  21.3 °C 32.9 °F /  0.5 °C 30.35in /  1027.7hPa NNW 0.9mph /  1.4km/h 5.0mph /  8km/h 25% 0.00in /  0mm 23.0 W/m2
16:22 70.0 °F /  21.1 °C 33.4 °F /  0.8 °C 30.35in /  1027.7hPa Calm   2.0mph /  3.2km/h 26% 0.00in /  0mm 21.0 W/m2
16:29 69.6 °F /  20.9 °C 34.2 °F /  1.2 °C 30.35in /  1027.7hPa NE 2.9mph /  4.7km/h 5.0mph /  8km/h 27% 0.00in /  0mm 19.0 W/m2
16:35 69.4 °F /  20.8 °C 34.0 °F /  1.1 °C 30.35in /  1027.7hPa Calm   2.0mph /  3.2km/h 27% 0.00in /  0mm 19.0 W/m2
16:41 69.1 °F /  20.6 °C 34.5 °F /  1.4 °C 30.35in /  1027.7hPa ENE 0.9mph /  1.4km/h 2.0mph /  3.2km/h 28% 0.00in /  0mm 18.0 W/m2
16:47 68.7 °F /  20.4 °C 33.4 °F /  0.8 °C 30.35in /  1027.7hPa Calm   3.0mph /  4.8km/h 27% 0.00in /  0mm 14.0 W/m2
16:53 68.4 °F /  20.2 °C 33.1 °F /  0.6 °C 30.35in /  1027.7hPa Calm   4.0mph /  6.4km/h 27% 0.00in /  0mm 12.0 W/m2
16:59 68.2 °F /  20.1 °C 34.7 °F /  1.5 °C 30.36in /  1028hPa Calm   2.0mph /  3.2km/h 29% 0.00in /  0mm 11.0 W/m2
17:05 67.6 °F /  19.8 °C 34.2 °F /  1.2 °C 30.36in /  1028hPa Calm   1.0mph /  1.6km/h 29% 0.00in /  0mm 7.0 W/m2
17:12 67.3 °F /  19.6 °C 34.0 °F /  1.1 °C 30.36in /  1028hPa Calm   1.0mph /  1.6km/h 29% 0.00in /  0mm 5.0 W/m2
17:18 66.7 °F /  19.3 °C 34.3 °F /  1.3 °C 30.36in /  1028hPa Calm   1.0mph /  1.6km/h 30% 0.00in /  0mm 0.0 W/m2
17:24 66.0 °F /  18.9 °C 34.5 °F /  1.4 °C 30.36in /  1028hPa Calm     31% 0.00in /  0mm 0.0 W/m2
17:30 65.3 °F /  18.5 °C 34.7 °F /  1.5 °C 30.36in /  1028hPa Calm     32% 0.00in /  0mm 0.0 W/m2
17:36 64.4 °F /  18 °C 34.0 °F /  1.1 °C 30.37in /  1028.3hPa Calm     32% 0.00in /  0mm 0.0 W/m2
17:42 63.7 °F /  17.6 °C 34.7 °F /  1.5 °C 30.37in /  1028.3hPa Calm   1.0mph /  1.6km/h 34% 0.00in /  0mm 0.0 W/m2
17:48 63.0 °F /  17.2 °C 34.2 °F /  1.2 °C 30.37in /  1028.3hPa Calm     34% 0.00in /  0mm 0.0 W/m2
17:54 62.1 °F /  16.7 °C 34.2 °F /  1.2 °C 30.37in /  1028.3hPa Calm     35% 0.00in /  0mm 0.0 W/m2
18:01 61.5 °F /  16.4 °C 33.6 °F /  0.9 °C 30.37in /  1028.3hPa Calm   1.0mph /  1.6km/h 35% 0.00in /  0mm 0.0 W/m2
18:07 61.0 °F /  16.1 °C 34.5 °F /  1.4 °C 30.38in /  1028.7hPa Calm   2.0mph /  3.2km/h 37% 0.00in /  0mm 0.0 W/m2
18:13 60.4 °F /  15.8 °C 34.0 °F /  1.1 °C 30.38in /  1028.7hPa East 2.0mph /  3.2km/h 3.0mph /  4.8km/h 37% 0.00in /  0mm 0.0 W/m2
18:19 60.1 °F /  15.6 °C 33.8 °F /  1 °C 30.38in /  1028.7hPa SE 0.9mph /  1.4km/h 1.0mph /  1.6km/h 37% 0.00in /  0mm 0.0 W/m2
18:25 59.7 °F /  15.4 °C 34.0 °F /  1.1 °C 30.38in /  1028.7hPa Calm   1.0mph /  1.6km/h 38% 0.00in /  0mm 0.0 W/m2
18:31 59.4 °F /  15.2 °C 33.8 °F /  1 °C 30.38in /  1028.7hPa Calm   1.0mph /  1.6km/h 38% 0.00in /  0mm 0.0 W/m2
18:44 58.6 °F /  14.8 °C 33.8 °F /  1 °C 30.38in /  1028.7hPa Calm   2.0mph /  3.2km/h 39% 0.00in /  0mm 0.0 W/m2
18:50 58.3 °F /  14.6 °C 34.0 °F /  1.1 °C 30.39in /  1029hPa East 0.9mph /  1.4km/h 1.0mph /  1.6km/h 40% 0.00in /  0mm 0.0 W/m2
18:56 57.9 °F /  14.4 °C 33.8 °F /  1 °C 30.39in /  1029hPa Calm   3.0mph /  4.8km/h 40% 0.00in /  0mm 0.0 W/m2
19:02 57.7 °F /  14.3 °C 34.2 °F /  1.2 °C 30.39in /  1029hPa Calm   2.0mph /  3.2km/h 41% 0.00in /  0mm 0.0 W/m2
19:08 57.4 °F /  14.1 °C 33.8 °F /  1 °C 30.39in /  1029hPa Calm   2.0mph /  3.2km/h 41% 0.00in /  0mm 0.0 W/m2
19:14 57.0 °F /  13.9 °C 33.6 °F /  0.9 °C 30.39in /  1029hPa Calm   4.0mph /  6.4km/h 41% 0.00in /  0mm 0.0 W/m2
19:20 56.7 °F /  13.7 °C 33.8 °F /  1 °C 30.40in /  1029.3hPa Calm   2.0mph /  3.2km/h 42% 0.00in /  0mm 0.0 W/m2
19:26 56.5 °F /  13.6 °C 33.6 °F /  0.9 °C 30.40in /  1029.3hPa Calm   2.0mph /  3.2km/h 42% 0.00in /  0mm 0.0 W/m2
19:33 56.1 °F /  13.4 °C 34.0 °F /  1.1 °C 30.40in /  1029.3hPa Calm     43% 0.00in /  0mm 0.0 W/m2
19:39 55.8 °F /  13.2 °C 33.6 °F /  0.9 °C 30.40in /  1029.3hPa ESE 0.9mph /  1.4km/h 1.0mph /  1.6km/h 43% 0.00in /  0mm 0.0 W/m2
19:45 55.2 °F /  12.9 °C 33.6 °F /  0.9 °C 30.40in /  1029.3hPa Calm   1.0mph /  1.6km/h 44% 0.00in /  0mm 0.0 W/m2
19:51 55.0 °F /  12.8 °C 33.4 °F /  0.8 °C 30.40in /  1029.3hPa Calm   1.0mph /  1.6km/h 44% 0.00in /  0mm 0.0 W/m2
19:57 54.7 °F /  12.6 °C 33.8 °F /  1 °C 30.41in /  1029.7hPa Calm   1.0mph /  1.6km/h 45% 0.00in /  0mm 0.0 W/m2
20:03 54.3 °F /  12.4 °C 33.4 °F /  0.8 °C 30.41in /  1029.7hPa Calm     45% 0.00in /  0mm 0.0 W/m2
20:10 54.0 °F /  12.2 °C 33.6 °F /  0.9 °C 30.41in /  1029.7hPa Calm     46% 0.00in /  0mm 0.0 W/m2
20:18 53.4 °F /  11.9 °C 33.1 °F /  0.6 °C 30.41in /  1029.7hPa Calm     46% 0.00in /  0mm 0.0 W/m2
20:26 53.1 °F /  11.7 °C 33.8 °F /  1 °C 30.41in /  1029.7hPa Calm   1.0mph /  1.6km/h 48% 0.00in /  0mm 0.0 W/m2
20:36 52.7 °F /  11.5 °C 33.6 °F /  0.9 °C 30.41in /  1029.7hPa East 0.9mph /  1.4km/h 2.0mph /  3.2km/h 48% 0.00in /  0mm 0.0 W/m2
20:46 52.3 °F /  11.3 °C 33.3 °F /  0.7 °C 30.42in /  1030hPa Calm   1.0mph /  1.6km/h 48% 0.00in /  0mm 0.0 W/m2
20:51 52.3 °F /  11.3 °C 33.8 °F /  1 °C 30.42in /  1030hPa Calm   1.0mph /  1.6km/h 49% 0.00in /  0mm 0.0 W/m2
20:57 52.2 °F /  11.2 °C 33.6 °F /  0.9 °C 30.42in /  1030hPa Calm   2.0mph /  3.2km/h 49% 0.00in /  0mm 0.0 W/m2
21:03 52.2 °F /  11.2 °C 33.6 °F /  0.9 °C 30.42in /  1030hPa Calm   1.0mph /  1.6km/h 49% 0.00in /  0mm 0.0 W/m2
21:09 52.2 °F /  11.2 °C 33.6 °F /  0.9 °C 30.41in /  1029.7hPa Calm   1.0mph /  1.6km/h 49% 0.00in /  0mm 0.0 W/m2
21:15 52.0 °F /  11.1 °C 33.4 °F /  0.8 °C 30.42in /  1030hPa Calm   1.0mph /  1.6km/h 49% 0.00in /  0mm 0.0 W/m2
21:21 51.8 °F /  11 °C 33.3 °F /  0.7 °C 30.41in /  1029.7hPa Calm   1.0mph /  1.6km/h 49% 0.00in /  0mm 0.0 W/m2
21:27 51.6 °F /  10.9 °C 33.6 °F /  0.9 °C 30.42in /  1030hPa Calm   1.0mph /  1.6km/h 50% 0.00in /  0mm 0.0 W/m2
21:33 51.4 °F /  10.8 °C 33.4 °F /  0.8 °C 30.42in /  1030hPa Calm     50% 0.00in /  0mm 0.0 W/m2
21:40 51.3 °F /  10.7 °C 33.3 °F /  0.7 °C 30.42in /  1030hPa Calm     50% 0.00in /  0mm 0.0 W/m2
21:46 51.1 °F /  10.6 °C 33.1 °F /  0.6 °C 30.42in /  1030hPa Calm     50% 0.00in /  0mm 0.0 W/m2
21:52 50.5 °F /  10.3 °C 33.1 °F /  0.6 °C 30.42in /  1030hPa Calm     51% 0.00in /  0mm 0.0 W/m2
21:58 50.4 °F /  10.2 °C 32.9 °F /  0.5 °C 30.42in /  1030hPa Calm     51% 0.00in /  0mm 0.0 W/m2
22:04 49.8 °F /  9.9 °C 33.4 °F /  0.8 °C 30.42in /  1030hPa Calm     53% 0.00in /  0mm 0.0 W/m2
22:10 49.6 °F /  9.8 °C 33.6 °F /  0.9 °C 30.42in /  1030hPa Calm     54% 0.00in /  0mm 0.0 W/m2
22:16 49.5 °F /  9.7 °C 34.0 °F /  1.1 °C 30.42in /  1030hPa Calm   2.0mph /  3.2km/h 55% 0.00in /  0mm 0.0 W/m2
22:23 49.5 °F /  9.7 °C 34.0 °F /  1.1 °C 30.42in /  1030hPa Calm   2.0mph /  3.2km/h 55% 0.00in /  0mm 0.0 W/m2
22:29 49.6 °F /  9.8 °C 34.2 °F /  1.2 °C 30.42in /  1030hPa Calm   4.0mph /  6.4km/h 55% 0.00in /  0mm 0.0 W/m2
22:35 49.6 °F /  9.8 °C 34.2 °F /  1.2 °C 30.42in /  1030hPa Calm   3.0mph /  4.8km/h 55% 0.00in /  0mm 0.0 W/m2
22:41 49.6 °F /  9.8 °C 34.2 °F /  1.2 °C 30.42in /  1030hPa Calm     55% 0.00in /  0mm 0.0 W/m2
22:47 49.6 °F /  9.8 °C 34.2 °F /  1.2 °C 30.42in /  1030hPa Calm   1.0mph /  1.6km/h 55% 0.00in /  0mm 0.0 W/m2
22:53 49.6 °F /  9.8 °C 34.2 °F /  1.2 °C 30.43in /  1030.4hPa Calm     55% 0.00in /  0mm 0.0 W/m2
22:59 49.6 °F /  9.8 °C 34.5 °F /  1.4 °C 30.43in /  1030.4hPa Calm     56% 0.00in /  0mm 0.0 W/m2
23:05 49.5 °F /  9.7 °C 34.9 °F /  1.6 °C 30.43in /  1030.4hPa Calm     57% 0.00in /  0mm 0.0 W/m2
23:11 49.5 °F /  9.7 °C 34.9 °F /  1.6 °C 30.43in /  1030.4hPa Calm   1.0mph /  1.6km/h 57% 0.00in /  0mm 0.0 W/m2
23:18 49.3 °F /  9.6 °C 34.7 °F /  1.5 °C 30.43in /  1030.4hPa Calm     57% 0.00in /  0mm 0.0 W/m2
23:24 49.5 °F /  9.7 °C 35.2 °F /  1.8 °C 30.43in /  1030.4hPa Calm     58% 0.00in /  0mm 0.0 W/m2
23:30 49.5 °F /  9.7 °C 35.2 °F /  1.8 °C 30.43in /  1030.4hPa Calm   1.0mph /  1.6km/h 58% 0.00in /  0mm 0.0 W/m2
23:36 49.3 °F /  9.6 °C 35.1 °F /  1.7 °C 30.43in /  1030.4hPa Calm   1.0mph /  1.6km/h 58% 0.00in /  0mm 0.0 W/m2
23:42 49.3 °F /  9.6 °C 35.6 °F /  2 °C 30.43in /  1030.4hPa Calm   1.0mph /  1.6km/h 59% 0.00in /  0mm 0.0 W/m2
23:48 49.3 °F /  9.6 °C 35.6 °F /  2 °C 30.43in /  1030.4hPa Calm     59% 0.00in /  0mm 0.0 W/m2
23:55 49.1 °F /  9.5 °C 35.4 °F /  1.9 °C 30.42in /  1030hPa Calm   1.0mph /  1.6km/h 59% 0.00in /  0mm 0.0 W/m2
Olympia, Windhoek, Namibia
Compliments of Weather Underground - 3 mb